Time;durP1;ratioP1;P1;durP2;ratioP2;P2;SDS_P1;SDS_P2;PMS_P1;PMS_P2;Temp;Humidity;BMP_temperature;BMP_pressure;BME280_temperature;BME280_humidity;BME280_pressure;Samples;Min_cycle;Max_cycle;Signal;HPM_P1;HPM_P2
2022/08/18 00:00:13;;;;;;;22.55;10.60;;;19.30;99.90;;;;;;4805099;29;20411;-73
2022/08/18 00:02:41;;;;;;;33.13;10.95;;;18.40;99.90;;;;;;4835029;29;20058;-73
2022/08/18 00:05:08;;;;;;;22.70;10.90;;;18.90;99.90;;;;;;4804947;29;20373;-73
2022/08/18 00:07:34;;;;;;;17.73;10.88;;;19.00;99.90;;;;;;4804583;29;20051;-73
2022/08/18 00:10:01;;;;;;;22.05;11.63;;;19.20;99.90;;;;;;4822660;29;20131;-73
2022/08/18 00:12:30;;;;;;;33.05;12.55;;;18.20;99.90;;;;;;4827349;29;20130;-73
2022/08/18 00:15:00;;;;;;;31.88;12.50;;;;;;;;;;4789928;29;20051;-73
2022/08/18 00:17:26;;;;;;;29.40;11.98;;;;;;;;;;4804781;29;20051;-73
2022/08/18 00:19:52;;;;;;;21.80;12.50;;;;;;;;;;4804870;29;20497;-73
2022/08/18 00:22:20;;;;;;;24.05;12.40;;;18.10;99.90;;;;;;4789095;29;20500;-73
2022/08/18 00:24:52;;;;;;;23.85;12.88;;;18.10;99.90;;;;;;4834764;29;20129;-73
2022/08/18 00:27:23;;;;;;;24.93;12.63;;;18.00;99.90;;;;;;4804486;29;20103;-73
2022/08/18 00:29:51;;;;;;;25.25;12.93;;;18.10;99.90;;;;;;4835001;29;20288;-73
2022/08/18 00:32:24;;;;;;;26.02;13.45;;;18.10;99.90;;;;;;4788965;29;20484;-73
2022/08/18 00:34:50;;;;;;;21.92;12.07;;;;;;;;;;4804598;29;20119;-73
2022/08/18 00:37:16;;;;;;;31.83;12.27;;;;;;;;;;4804474;29;20047;-73
2022/08/18 00:39:42;;;;;;;20.98;12.57;;;18.30;99.90;;;;;;4789587;29;20049;-73
2022/08/18 00:42:16;;;;;;;21.38;11.52;;;17.40;99.90;;;;;;4804447;29;20113;-73
2022/08/18 00:44:43;;;;;;;26.85;12.82;;;;;;;;;;4834643;29;20047;-72
2022/08/18 00:47:09;;;;;;;26.33;12.45;;;19.20;99.90;;;;;;4804389;29;20083;-73
2022/08/18 00:49:36;;;;;;;29.95;12.95;;;18.30;99.90;;;;;;4789489;29;20047;-73
2022/08/18 00:52:03;;;;;;;25.58;12.38;;;19.30;99.90;;;;;;4803973;29;20054;-73
2022/08/18 00:54:32;;;;;;;22.88;12.30;;;18.20;99.90;;;;;;4803144;29;20499;-73
2022/08/18 00:57:05;;;;;;;26.33;13.25;;;18.20;99.90;;;;;;4796983;29;20557;-73
2022/08/18 00:59:46;;;;;;;23.45;11.95;;;18.50;99.90;;;;;;4804363;29;20579;-73
2022/08/18 01:02:19;;;;;;;18.25;11.23;;;19.30;99.90;;;;;;4825145;29;20379;-73
2022/08/18 01:05:07;;;;;;;25.50;11.10;;;19.10;99.90;;;;;;4804068;29;20051;-73
2022/08/18 01:07:39;;;;;;;33.45;11.10;;;18.10;99.90;;;;;;4826078;29;20457;-73
2022/08/18 01:10:05;;;;;;;21.58;11.77;;;19.20;99.90;;;;;;4837905;29;20438;-73
2022/08/18 01:12:32;;;;;;;23.75;11.10;;;;;;;;;;4826010;29;20129;-73
2022/08/18 01:14:59;;;;;;;26.23;11.13;;;18.40;99.90;;;;;;4807224;29;20051;-73
2022/08/18 01:23:13;;;;;;;17.73;10.90;;;17.30;99.90;;;;;;4805577;29;20131;-73
2022/08/18 01:28:24;;;;;;;20.55;10.88;;;;;;;;;;4807219;29;20131;-69
2022/08/18 01:30:57;;;;;;;23.15;11.52;;;18.40;99.90;;;;;;4806943;29;20076;-69
2022/08/18 01:33:31;;;;;;;21.90;11.02;;;18.70;99.90;;;;;;4823047;29;20046;-69
2022/08/18 01:36:04;;;;;;;23.98;10.70;;;17.30;99.90;;;;;;4804099;29;20043;-69
2022/08/18 01:38:31;;;;;;;16.52;10.40;;;;;;;;;;4806731;29;20046;-69
2022/08/18 01:40:57;;;;;;;24.85;11.30;;;19.40;99.90;;;;;;4807050;29;20129;-69
2022/08/18 01:43:23;;;;;;;23.42;11.35;;;;;;;;;;4806618;29;20059;-69
2022/08/18 01:45:49;;;;;;;18.65;11.18;;;19.40;99.90;;;;;;4806601;29;20043;-68
2022/08/18 01:48:15;;;;;;;21.20;11.38;;;19.20;99.90;;;;;;4806280;29;20051;-69
2022/08/18 01:50:43;;;;;;;22.60;12.07;;;18.90;99.90;;;;;;4806548;29;20130;-69
2022/08/18 01:53:10;;;;;;;24.02;11.25;;;;;;;;;;4806879;29;20047;-68
2022/08/18 01:55:37;;;;;;;27.20;11.43;;;18.30;99.90;;;;;;4791654;29;20131;-68
2022/08/18 01:58:05;;;;;;;21.98;10.68;;;18.20;99.90;;;;;;4791346;29;20141;-69
2022/08/18 02:00:31;;;;;;;28.80;11.43;;;17.30;99.90;;;;;;4806577;29;20046;-69
2022/08/18 02:02:59;;;;;;;22.33;10.57;;;18.40;99.90;;;;;;4806306;29;20066;-69
2022/08/18 02:05:35;;;;;;;19.40;11.45;;;18.50;99.90;;;;;;4791198;29;20039;-69
2022/08/18 02:08:01;;;;;;;23.63;11.63;;;;;;;;;;4791492;29;20400;-69
2022/08/18 02:10:27;;;;;;;25.33;10.57;;;;;;;;;;4791149;29;20075;-68
2022/08/18 02:12:53;;;;;;;32.08;10.73;;;;;;;;;;4791195;29;20442;-69
2022/08/18 02:15:19;;;;;;;26.35;10.93;;;17.90;99.90;;;;;;4806291;29;20555;-68
2022/08/18 02:17:45;;;;;;;22.48;10.90;;;18.20;99.90;;;;;;4805810;29;20127;-68
2022/08/18 02:20:14;;;;;;;24.90;12.13;;;17.40;99.90;;;;;;4806614;29;20055;-69
2022/08/18 02:22:41;;;;;;;27.30;12.05;;;18.50;99.90;;;;;;4833202;29;20318;-68
2022/08/18 02:25:08;;;;;;;27.15;11.57;;;18.20;99.90;;;;;;4806897;29;20051;-69
2022/08/18 02:27:34;;;;;;;25.13;11.40;;;19.30;99.90;;;;;;4791309;29;20087;-68
2022/08/18 02:30:02;;;;;;;23.17;11.93;;;18.10;99.90;;;;;;4821886;29;20121;-68
2022/08/18 02:32:28;;;;;;;28.80;10.95;;;;;;;;;;4791294;29;20051;-69
2022/08/18 02:34:54;;;;;;;32.33;10.85;;;19.20;99.90;;;;;;4806005;29;20054;-69
2022/08/18 02:37:21;;;;;;;24.17;11.23;;;;;;;;;;4805493;29;20062;-69
2022/08/18 02:39:48;;;;;;;21.98;11.75;;;;;;;;;;4790970;29;20057;-68
2022/08/18 02:42:14;;;;;;;19.30;11.38;;;19.50;99.90;;;;;;4790328;29;20488;-69
2022/08/18 02:44:40;;;;;;;23.10;11.18;;;;;;;;;;4792049;29;20039;-68
2022/08/18 02:47:06;;;;;;;24.88;11.27;;;;;;;;;;4806163;29;20065;-68
2022/08/18 02:49:32;;;;;;;37.47;11.90;;;17.40;99.90;;;;;;4805409;29;20496;-68
2022/08/18 02:51:58;;;;;;;21.17;10.75;;;19.00;99.90;;;;;;4805544;29;20056;-68
2022/08/18 02:54:24;;;;;;;21.15;11.38;;;18.30;99.90;;;;;;4825136;29;20141;-69
2022/08/18 02:56:51;;;;;;;26.67;12.05;;;18.40;99.90;;;;;;4805277;29;20142;-69
2022/08/18 02:59:23;;;;;;;23.50;10.98;;;19.50;99.90;;;;;;4806608;29;20042;-69
2022/08/18 03:01:50;;;;;;;17.95;11.00;;;18.70;99.90;;;;;;4830242;29;20077;-69
2022/08/18 03:04:20;;;;;;;29.25;11.40;;;18.40;99.90;;;;;;4804980;29;20046;-69
2022/08/18 03:06:46;;;;;;;24.17;11.60;;;;;;;;;;4787479;30;20507;-69
2022/08/18 03:09:14;;;;;;;24.92;11.10;;;17.40;99.90;;;;;;4798389;29;20051;-68
2022/08/18 03:11:40;;;;;;;22.83;11.15;;;18.60;99.90;;;;;;4790374;29;20088;-69
2022/08/18 03:14:07;;;;;;;21.02;10.77;;;;;;;;;;4804890;29;20049;-68
2022/08/18 03:16:35;;;;;;;20.63;10.77;;;18.70;99.90;;;;;;4805429;29;20054;-69
2022/08/18 03:19:01;;;;;;;18.75;11.23;;;17.90;99.90;;;;;;4790485;29;20126;-69
2022/08/18 03:21:30;;;;;;;18.50;9.93;;;18.30;99.90;;;;;;4804909;29;20491;-69
2022/08/18 03:23:56;;;;;;;19.13;11.25;;;18.50;99.90;;;;;;4789653;29;20051;-69
2022/08/18 03:26:23;;;;;;;21.70;10.73;;;18.50;99.90;;;;;;4790071;29;20057;-69
2022/08/18 03:28:51;;;;;;;21.45;10.68;;;18.50;99.90;;;;;;4831709;29;20510;-68
2022/08/18 03:31:18;;;;;;;24.13;10.98;;;18.50;99.90;;;;;;4804403;29;20175;-69
2022/08/18 03:33:45;;;;;;;20.92;10.88;;;17.10;99.90;;;;;;4819740;29;20088;-68
2022/08/18 03:36:18;;;;;;;18.05;11.48;;;18.60;99.90;;;;;;4804792;29;20134;-69
2022/08/18 03:38:48;;;;;;;23.77;12.23;;;17.30;99.90;;;;;;4834305;29;20039;-69
2022/08/18 03:41:16;;;;;;;27.80;11.85;;;17.30;99.90;;;;;;4805166;29;20065;-69
2022/08/18 03:43:42;;;;;;;19.48;11.52;;;19.40;99.90;;;;;;4804717;29;20057;-69
2022/08/18 03:46:11;;;;;;;20.95;11.15;;;18.60;99.90;;;;;;4805290;29;20130;-69
2022/08/18 03:48:39;;;;;;;21.38;11.50;;;19.10;99.90;;;;;;4820553;29;20400;-69
2022/08/18 03:51:08;;;;;;;20.73;11.52;;;19.70;99.90;;;;;;4789968;29;20047;-69
2022/08/18 03:53:35;;;;;;;22.77;10.35;;;19.60;99.90;;;;;;4789763;29;20051;-69
2022/08/18 03:56:02;;;;;;;25.88;11.13;;;;;;;;;;4804555;29;20066;-69
2022/08/18 03:58:28;;;;;;;24.13;11.00;;;;;;;;;;4804657;29;20411;-69
2022/08/18 04:00:53;;;;;;;24.15;10.52;;;18.20;99.90;;;;;;4804298;29;20046;-69
2022/08/18 04:03:19;;;;;;;19.95;10.15;;;;;;;;;;4789202;29;20047;-69
2022/08/18 04:05:46;;;;;;;19.88;10.68;;;;;;;;;;4792529;29;20095;-69
2022/08/18 04:08:12;;;;;;;23.02;11.02;;;18.70;99.90;;;;;;4771566;30;20039;-69
2022/08/18 04:10:38;;;;;;;21.67;10.00;;;18.50;99.90;;;;;;4800399;29;20050;-69
2022/08/18 04:13:04;;;;;;;15.73;10.20;;;19.60;99.90;;;;;;4789794;29;20062;-69
2022/08/18 04:15:33;;;;;;;17.17;10.38;;;18.50;99.90;;;;;;4810573;29;20047;-69
2022/08/18 04:18:00;;;;;;;18.48;9.80;;;18.40;99.90;;;;;;4804522;29;20051;-69
2022/08/18 04:20:25;;;;;;;19.00;11.00;;;17.60;99.90;;;;;;4789482;29;20050;-68
2022/08/18 04:22:51;;;;;;;17.42;10.48;;;18.80;99.90;;;;;;4788300;29;20203;-69
2022/08/18 04:25:18;;;;;;;18.23;10.20;;;;;;;;;;4796538;29;20533;-69
2022/08/18 04:27:44;;;;;;;19.23;10.48;;;;;;;;;;4804556;29;20515;-73
2022/08/18 04:30:10;;;;;;;20.58;9.27;;;18.90;99.90;;;;;;4789183;29;20135;-73
2022/08/18 04:32:36;;;;;;;21.13;10.15;;;;;;;;;;4802982;29;20107;-69
2022/08/18 04:35:03;;;;;;;20.55;9.88;;;;;;;;;;4808165;29;20061;-69
2022/08/18 04:37:31;;;;;;;26.33;9.73;;;19.60;99.90;;;;;;4786946;29;20527;-69
2022/08/18 04:39:58;;;;;;;20.90;9.48;;;;;;;;;;4808353;29;20126;-69
2022/08/18 04:42:24;;;;;;;18.98;10.35;;;17.50;99.90;;;;;;4809706;29;20051;-69
2022/08/18 04:44:50;;;;;;;16.95;9.57;;;;;;;;;;4822991;29;20436;-69
2022/08/18 04:47:16;;;;;;;17.10;8.95;;;18.40;99.90;;;;;;4804236;29;20050;-69
2022/08/18 04:49:43;;;;;;;16.45;9.90;;;19.50;99.90;;;;;;4803513;29;20073;-69
2022/08/18 04:54:54;;;;;;;15.57;9.73;;;;;;;;;;4825621;29;20047;-70
2022/08/18 04:57:21;;;;;;;16.83;9.13;;;;;;;;;;4789894;29;20047;-69
2022/08/18 04:59:49;;;;;;;16.55;9.50;;;18.70;99.90;;;;;;4803533;29;20133;-69
2022/08/18 05:02:17;;;;;;;17.70;9.25;;;18.60;99.90;;;;;;4825461;29;20055;-69
2022/08/18 05:04:45;;;;;;;14.95;8.75;;;;;;;;;;4803896;29;20428;-68
2022/08/18 05:07:14;;;;;;;18.45;8.57;;;19.00;99.90;;;;;;4807171;29;20047;-69
2022/08/18 05:09:43;;;;;;;17.23;8.93;;;;;;;;;;4803944;29;20086;-69
2022/08/18 05:12:13;;;;;;;18.90;8.15;;;18.60;99.90;;;;;;4789396;29;20035;-69
2022/08/18 05:14:43;;;;;;;20.77;8.15;;;19.50;99.90;;;;;;4810001;29;20043;-69
2022/08/18 05:17:09;;;;;;;19.88;6.93;;;17.40;99.90;;;;;;4803089;29;20047;-69
2022/08/18 05:19:36;;;;;;;24.55;7.45;;;18.70;99.90;;;;;;4804158;29;20102;-68
2022/08/18 05:22:03;;;;;;;17.45;6.53;;;18.60;99.90;;;;;;4811190;29;20467;-68
2022/08/18 05:24:31;;;;;;;18.40;6.50;;;19.30;99.90;;;;;;4802513;29;20500;-71
2022/08/18 05:26:57;;;;;;;24.13;6.38;;;19.50;99.90;;;;;;4804032;29;20495;-72
2022/08/18 05:29:23;;;;;;;17.35;6.20;;;;;;;;;;4787708;29;20039;-72
2022/08/18 05:31:51;;;;;;;23.05;6.93;;;19.60;99.90;;;;;;4803917;29;20448;-72
2022/08/18 05:34:20;;;;;;;28.17;6.88;;;18.50;99.90;;;;;;4808814;29;20130;-73
2022/08/18 05:36:51;;;;;;;23.38;6.72;;;19.60;99.90;;;;;;4828627;29;20058;-72
2022/08/18 05:39:22;;;;;;;27.35;6.13;;;18.70;99.90;;;;;;4802643;29;20492;-73
2022/08/18 05:42:06;;;;;;;23.55;6.50;;;18.90;99.90;;;;;;4810037;29;20054;-73
2022/08/18 05:44:41;;;;;;;25.52;6.05;;;18.40;99.90;;;;;;4802479;29;20762;-73
2022/08/18 05:47:16;;;;;;;19.80;5.68;;;17.40;99.90;;;;;;4802466;29;20042;-75
2022/08/18 05:49:47;;;;;;;22.35;5.63;;;19.50;99.90;;;;;;4802091;29;20135;-73
2022/08/18 05:52:33;;;;;;;20.88;6.57;;;18.60;99.90;;;;;;4800894;29;20053;-73
2022/08/18 05:57:59;;;;;;;21.50;5.85;;;19.30;99.90;;;;;;4825968;29;20086;-74
2022/08/18 06:00:25;;;;;;;22.20;5.65;;;17.50;99.90;;;;;;4803044;29;20061;-73
2022/08/18 06:03:01;;;;;;;15.77;5.97;;;19.20;99.90;;;;;;4832712;29;20131;-74
2022/08/18 06:05:32;;;;;;;14.23;4.90;;;19.50;99.90;;;;;;4827952;29;20472;-73
2022/08/18 06:08:10;;;;;;;12.88;5.10;;;18.40;99.90;;;;;;4805352;29;20053;-74
2022/08/18 06:10:37;;;;;;;16.45;5.63;;;;;;;;;;4801982;29;20438;-74
2022/08/18 06:13:07;;;;;;;11.85;4.80;;;18.30;99.90;;;;;;4801943;29;20094;-74
2022/08/18 06:15:51;;;;;;;14.00;5.13;;;18.40;99.90;;;;;;4802510;29;20050;-73
2022/08/18 06:18:48;;;;;;;11.48;4.65;;;18.50;99.90;;;;;;4802278;29;20337;-68
2022/08/18 06:21:44;;;;;;;11.90;4.80;;;19.30;99.90;;;;;;4801980;29;20239;-68
2022/08/18 06:24:20;;;;;;;11.73;4.80;;;19.00;99.90;;;;;;4828219;29;20118;-69
2022/08/18 06:27:15;;;;;;;14.55;4.35;;;18.70;99.90;;;;;;4801508;29;20469;-68
2022/08/18 06:29:48;;;;;;;17.25;3.88;;;18.00;99.90;;;;;;4820929;29;20122;-68
2022/08/18 06:32:34;;;;;;;18.67;4.80;;;18.20;99.90;;;;;;4802707;29;20078;-68
2022/08/18 06:35:33;;;;;;;17.50;4.07;;;18.30;99.90;;;;;;4801051;29;20108;-69
2022/08/18 06:41:22;;;;;;;11.93;4.40;;;18.50;99.90;;;;;;4801953;29;20488;-68
2022/08/18 06:43:58;;;;;;;15.02;4.72;;;;;;;;;;4825223;29;20051;-70
2022/08/18 06:46:47;;;;;;;17.33;5.40;;;19.70;99.90;;;;;;4801127;29;20043;-68
2022/08/18 06:49:51;;;;;;;20.20;5.90;;;19.00;99.90;;;;;;4810240;29;20074;-68
2022/08/18 06:52:28;;;;;;;11.95;6.20;;;19.10;99.90;;;;;;4797352;29;20047;-71
2022/08/18 06:54:57;;;;;;;15.38;6.65;;;19.00;99.90;;;;;;4801334;29;20055;-72
2022/08/18 06:57:36;;;;;;;19.33;9.00;;;20.00;99.90;;;;;;4801503;29;20516;-74
2022/08/18 07:00:08;;;;;;;16.30;7.40;;;18.00;99.90;;;;;;4801946;29;20038;-71
2022/08/18 07:02:49;;;;;;;16.45;7.35;;;19.30;99.90;;;;;;4800240;29;20480;-71
2022/08/18 07:05:18;;;;;;;23.17;5.97;;;;;;;;;;4825330;29;20415;-72
2022/08/18 07:07:44;;;;;;;17.48;6.20;;;;;;;;;;4812014;29;20482;-73
2022/08/18 07:10:12;;;;;;;11.90;5.38;;;19.80;99.90;;;;;;4797559;29;20103;-73
2022/08/18 07:12:38;;;;;;;16.83;5.40;;;;;;;;;;4806553;29;20042;-73
2022/08/18 07:15:06;;;;;;;11.55;4.65;;;18.70;99.90;;;;;;4805483;29;20074;-73
2022/08/18 07:17:39;;;;;;;7.85;4.40;;;19.40;99.90;;;;;;4791071;29;20050;-73
2022/08/18 07:20:22;;;;;;;12.15;3.92;;;18.10;99.90;;;;;;4806168;29;20133;-73
2022/08/18 07:22:53;;;;;;;10.80;3.22;;;19.00;99.90;;;;;;4807213;29;20047;-73
2022/08/18 07:25:28;;;;;;;9.73;3.50;;;20.10;99.90;;;;;;4791686;29;20099;-73
2022/08/18 07:27:55;;;;;;;9.10;2.78;;;;;;;;;;4804803;29;20255;-73
2022/08/18 07:30:21;;;;;;;8.50;2.88;;;;;;;;;;4803744;29;20047;-74
2022/08/18 07:32:58;;;;;;;10.18;2.85;;;19.00;99.90;;;;;;4803630;29;20585;-73
2022/08/18 07:35:38;;;;;;;6.47;3.00;;;19.40;99.90;;;;;;4804291;29;20106;-73
2022/08/18 07:38:25;;;;;;;6.93;3.00;;;20.00;99.90;;;;;;4804754;29;20519;-73
2022/08/18 07:40:59;;;;;;;11.38;3.42;;;19.90;99.90;;;;;;4806340;29;20086;-73
2022/08/18 07:43:51;;;;;;;10.05;3.30;;;20.20;99.90;;;;;;4804930;29;20584;-73
2022/08/18 07:46:47;;;;;;;6.40;3.17;;;19.20;99.90;;;;;;4805001;29;20051;-73
2022/08/18 07:49:23;;;;;;;6.03;2.55;;;20.20;99.90;;;;;;4805282;29;20043;-73
2022/08/18 07:52:06;;;;;;;4.72;2.60;;;19.10;99.90;;;;;;4789791;29;20050;-73
2022/08/18 07:55:02;;;;;;;5.28;2.72;;;18.10;99.90;;;;;;4804791;29;20470;-72
2022/08/18 07:57:28;;;;;;;7.80;2.88;;;;;;;;;;4805046;29;20055;-72
2022/08/18 08:00:04;;;;;;;8.10;2.90;;;19.70;99.90;;;;;;4790714;29;20050;-72
2022/08/18 08:02:41;;;;;;;7.68;2.88;;;19.00;99.90;;;;;;4804928;29;20134;-72
2022/08/18 08:05:34;;;;;;;10.50;2.50;;;20.30;99.90;;;;;;4805215;29;20043;-72
2022/08/18 08:08:18;;;;;;;5.15;2.47;;;19.40;99.90;;;;;;4804800;29;20491;-72
2022/08/18 08:11:10;;;;;;;6.95;2.88;;;19.70;99.90;;;;;;4789636;29;20050;-73
2022/08/18 08:14:06;;;;;;;6.65;2.78;;;20.50;99.90;;;;;;4804750;29;20051;-73
2022/08/18 08:16:59;;;;;;;13.13;2.67;;;19.80;99.90;;;;;;4808021;29;20066;-73
2022/08/18 08:19:52;;;;;;;6.40;3.20;;;19.90;99.90;;;;;;4808251;29;20054;-75
2022/08/18 08:22:20;;;;;;;7.45;2.63;;;19.20;99.90;;;;;;4808019;29;20200;-73
2022/08/18 08:25:24;;;;;;;8.73;3.08;;;20.50;99.90;;;;;;4829841;29;20039;-73
2022/08/18 08:27:55;;;;;;;7.65;2.92;;;20.40;99.90;;;;;;4790895;29;20047;-73
2022/08/18 08:30:30;;;;;;;10.68;3.30;;;19.30;99.90;;;;;;4809852;29;20042;-73
2022/08/18 08:33:11;;;;;;;6.40;2.80;;;19.60;99.90;;;;;;4793192;29;20051;-73
2022/08/18 08:36:06;;;;;;;9.20;3.17;;;18.90;99.90;;;;;;4808016;29;20042;-69
2022/08/18 08:39:00;;;;;;;6.82;2.75;;;19.90;99.90;;;;;;4808019;29;20051;-69
2022/08/18 08:41:34;;;;;;;7.80;2.80;;;19.80;99.90;;;;;;4808027;29;20050;-69
2022/08/18 08:44:08;;;;;;;8.45;2.97;;;19.90;99.90;;;;;;4807934;29;20089;-69
2022/08/18 08:46:48;;;;;;;7.15;2.70;;;19.70;99.90;;;;;;4807873;29;20081;-69
2022/08/18 08:49:39;;;;;;;8.70;3.22;;;20.00;99.90;;;;;;4792786;29;20522;-69
2022/08/18 08:52:20;;;;;;;7.05;2.47;;;18.80;99.90;;;;;;4807519;29;20466;-69
2022/08/18 08:55:01;;;;;;;9.10;3.03;;;20.20;99.90;;;;;;4830293;29;20148;-72
2022/08/18 08:57:34;;;;;;;12.98;2.88;;;18.90;99.90;;;;;;4808538;29;20543;-69
2022/08/18 09:00:03;;;;;;;7.03;2.95;;;18.90;99.90;;;;;;4822417;29;20047;-69
2022/08/18 09:02:48;;;;;;;9.95;2.80;;;19.00;99.90;;;;;;4791763;29;20425;-72
2022/08/18 09:05:20;;;;;;;8.68;2.38;;;19.10;99.90;;;;;;4791867;29;20515;-72
2022/08/18 09:08:01;;;;;;;6.15;2.70;;;19.50;99.90;;;;;;4806888;29;20031;-73
2022/08/18 09:10:44;;;;;;;10.48;2.70;;;19.30;99.90;;;;;;4806267;29;20051;-72
2022/08/18 09:13:43;;;;;;;10.73;2.67;;;19.10;99.90;;;;;;4791818;29;20047;-72
2022/08/18 09:16:28;;;;;;;5.38;2.60;;;21.00;99.90;;;;;;4794840;29;20062;-68
2022/08/18 09:19:12;;;;;;;10.55;2.40;;;20.30;99.90;;;;;;4809242;29;20050;-68
2022/08/18 09:21:39;;;;;;;4.72;2.20;;;;;;;;;;4817806;29;20505;-68
2022/08/18 09:24:20;;;;;;;9.20;2.90;;;20.00;99.90;;;;;;4817214;29;20088;-68
2022/08/18 09:27:12;;;;;;;12.65;2.70;;;20.00;99.90;;;;;;4813883;29;20042;-68
2022/08/18 09:29:38;;;;;;;8.23;2.70;;;;;;;;;;4800640;29;20039;-68
2022/08/18 09:32:19;;;;;;;9.50;3.22;;;19.90;99.90;;;;;;4806251;29;20056;-68
2022/08/18 09:34:48;;;;;;;7.93;2.70;;;19.70;99.90;;;;;;4812599;29;20039;-68
2022/08/18 09:37:21;;;;;;;7.72;2.90;;;20.30;99.90;;;;;;4807112;29;20115;-68
2022/08/18 09:43:15;;;;;;;6.03;2.50;;;20.20;99.90;;;;;;4808002;29;20062;-69
2022/08/18 09:45:52;;;;;;;5.32;2.30;;;;;;;;;;4806192;29;20054;-69
2022/08/18 09:48:28;;;;;;;4.72;2.22;;;19.90;99.90;;;;;;4792184;29;20043;-69
2022/08/18 09:51:31;;;;;;;3.58;2.10;;;21.30;99.90;;;;;;4806792;29;20051;-69
2022/08/18 09:54:30;;;;;;;6.15;2.22;;;20.50;99.90;;;;;;4806728;29;20107;-68
2022/08/18 09:57:08;;;;;;;4.00;2.70;;;19.50;99.90;;;;;;4786727;29;20067;-68
2022/08/18 09:59:35;;;;;;;5.90;2.20;;;;;;;;;;4806615;29;20593;-68
2022/08/18 10:02:05;;;;;;;6.90;2.38;;;21.20;99.90;;;;;;4791694;29;20108;-68
2022/08/18 10:04:33;;;;;;;9.95;2.10;;;20.60;99.90;;;;;;4836866;29;20104;-68
2022/08/18 10:07:20;;;;;;;11.38;2.58;;;21.30;99.90;;;;;;4806453;29;20050;-68
2022/08/18 10:10:08;;;;;;;7.57;2.47;;;20.40;99.90;;;;;;4806351;29;20054;-68
2022/08/18 10:12:59;;;;;;;8.52;2.63;;;20.60;99.90;;;;;;4806395;29;20078;-69
2022/08/18 10:15:34;;;;;;;13.82;3.63;;;20.10;99.90;;;;;;4807823;29;20043;-68
2022/08/18 10:18:21;;;;;;;7.78;2.58;;;21.40;99.90;;;;;;4839697;29;20050;-69
2022/08/18 10:21:12;;;;;;;6.88;2.30;;;21.50;99.90;;;;;;4839725;29;20044;-68
2022/08/18 10:24:02;;;;;;;6.15;2.42;;;21.30;99.90;;;;;;4820017;29;20066;-69
2022/08/18 10:26:31;;;;;;;10.30;2.00;;;20.70;99.90;;;;;;4839335;29;20510;-69
2022/08/18 10:29:10;;;;;;;9.15;2.45;;;21.90;99.90;;;;;;4809107;29;20488;-69
2022/08/18 10:31:59;;;;;;;8.43;2.38;;;20.10;99.90;;;;;;4808947;29;20049;-69
2022/08/18 10:34:54;;;;;;;6.03;2.05;;;21.90;99.90;;;;;;4807115;29;20050;-69
2022/08/18 10:37:31;;;;;;;13.50;2.70;;;20.70;99.90;;;;;;4824141;29;20053;-69
2022/08/18 10:40:09;;;;;;;5.72;2.40;;;21.90;99.90;;;;;;4824106;29;20043;-69
2022/08/18 10:43:06;;;;;;;5.28;2.00;;;21.60;99.90;;;;;;4839577;29;20400;-69
2022/08/18 10:45:52;;;;;;;7.40;2.20;;;21.20;99.80;;;;;;4823889;29;20448;-68
2022/08/18 10:48:31;;;;;;;3.60;2.08;;;21.40;99.90;;;;;;4809224;29;20042;-68
2022/08/18 10:51:00;;;;;;;7.30;2.30;;;21.00;99.90;;;;;;4825306;29;20042;-68
2022/08/18 10:53:44;;;;;;;5.07;2.15;;;21.20;99.10;;;;;;4839004;29;20054;-68
2022/08/18 10:56:16;;;;;;;5.00;2.30;;;22.40;99.90;;;;;;4823465;29;20062;-69
2022/08/18 10:59:15;;;;;;;6.78;2.20;;;21.80;99.30;;;;;;4823806;29;20078;-68
2022/08/18 11:02:06;;;;;;;5.50;2.22;;;22.50;99.90;;;;;;4823759;29;20081;-68
2022/08/18 11:04:47;;;;;;;3.60;1.88;;;22.00;98.50;;;;;;4823773;29;20046;-68
2022/08/18 11:07:18;;;;;;;5.57;2.20;;;21.90;99.90;;;;;;4808680;29;20078;-68
2022/08/18 11:09:45;;;;;;;4.75;2.20;;;22.90;99.90;;;;;;4824016;29;20065;-73
2022/08/18 11:12:13;;;;;;;12.10;2.70;;;22.60;99.90;;;;;;4823316;29;20050;-72
2022/08/18 11:15:31;;;;;;;3.40;2.13;;;22.00;97.50;;;;;;4807073;29;20050;-72
2022/08/18 11:18:09;;;;;;;4.60;1.98;;;21.50;99.90;;;;;;4803134;29;20062;-72
2022/08/18 11:20:35;;;;;;;7.72;2.10;;;21.30;99.90;;;;;;4801283;29;20070;-73
2022/08/18 11:23:02;;;;;;;4.40;2.30;;;22.70;99.90;;;;;;4827769;29;20150;-73
2022/08/18 11:25:34;;;;;;;3.33;2.17;;;22.10;99.90;;;;;;4814522;29;20114;-73
2022/08/18 11:28:01;;;;;;;5.25;2.20;;;21.60;99.20;;;;;;4821086;29;20038;-73
2022/08/18 11:30:35;;;;;;;6.35;2.25;;;22.30;99.90;;;;;;4814246;29;20495;-72
2022/08/18 11:33:03;;;;;;;7.45;2.40;;;20.50;99.90;;;;;;4813235;29;20525;-72
2022/08/18 11:35:32;;;;;;;5.88;2.15;;;22.30;99.90;;;;;;4798173;29;20566;-73
2022/08/18 11:38:02;;;;;;;7.18;2.35;;;21.70;98.20;;;;;;4812763;29;20057;-72
2022/08/18 11:40:43;;;;;;;4.57;2.50;;;20.60;99.00;;;;;;4812667;29;20046;-73
2022/08/18 11:43:09;;;;;;;2.80;2.20;;;;;;;;;;4809748;29;20050;-73
2022/08/18 11:45:53;;;;;;;4.20;2.45;;;22.70;99.90;;;;;;4815502;29;20042;-72
2022/08/18 11:48:25;;;;;;;6.88;2.40;;;22.40;99.90;;;;;;4827989;29;20046;-72
2022/08/18 11:50:53;;;;;;;;;;;21.70;99.00;;;;;;4812814;29;20038;-71
2022/08/18 11:53:50;;;;;;;9.82;2.70;;;22.50;99.90;;;;;;4798445;29;19920;-72
2022/08/18 11:56:19;;;;;;;4.30;2.30;;;22.20;99.90;;;;;;4812599;29;20077;-73
2022/08/18 11:58:58;;;;;;;5.45;2.45;;;22.60;99.90;;;;;;4814733;29;20595;-69
2022/08/18 12:01:42;;;;;;;7.50;2.40;;;22.50;99.90;;;;;;4811691;29;20074;-68
2022/08/18 12:04:23;;;;;;;6.07;2.25;;;22.10;99.90;;;;;;4811768;29;20046;-68
2022/08/18 12:06:54;;;;;;;8.18;3.08;;;22.80;99.90;;;;;;4799300;29;20046;-69
2022/08/18 12:09:39;;;;;;;4.93;2.58;;;22.30;99.90;;;;;;4799035;29;20038;-68
2022/08/18 12:12:25;;;;;;;3.50;2.40;;;22.50;99.90;;;;;;4811707;29;20039;-68
2022/08/18 12:14:58;;;;;;;6.78;2.80;;;23.30;99.90;;;;;;4813799;29;20034;-68
2022/08/18 12:17:25;;;;;;;5.50;2.78;;;22.60;99.90;;;;;;4814230;29;20103;-68
2022/08/18 12:19:51;;;;;;;5.75;2.45;;;21.50;99.90;;;;;;4794751;29;20110;-68
2022/08/18 12:22:24;;;;;;;9.23;2.90;;;22.60;99.90;;;;;;4789780;29;20099;-68
2022/08/18 12:24:50;;;;;;;8.60;2.72;;;23.20;99.90;;;;;;4804059;29;20488;-68
2022/08/18 12:27:19;;;;;;;8.02;3.63;;;23.60;99.90;;;;;;4789859;29;20051;-68
2022/08/18 12:29:45;;;;;;;8.90;3.00;;;23.40;99.90;;;;;;4804604;29;20053;-68
2022/08/18 12:32:12;;;;;;;4.75;2.72;;;23.60;99.90;;;;;;4835082;29;20035;-68
2022/08/18 12:34:38;;;;;;;5.53;3.00;;;23.30;99.90;;;;;;4829092;29;20057;-69
2022/08/18 12:37:07;;;;;;;8.55;3.10;;;23.40;99.80;;;;;;4789747;29;20055;-68
2022/08/18 12:39:32;;;;;;;8.15;2.42;;;22.30;99.60;;;;;;4804799;29;20576;-68
2022/08/18 12:41:58;;;;;;;5.00;2.75;;;23.40;99.60;;;;;;4804828;29;20162;-68
2022/08/18 12:44:25;;;;;;;6.38;2.97;;;23.00;95.20;;;;;;4804288;29;20086;-68
2022/08/18 12:46:51;;;;;;;8.57;3.20;;;23.10;99.20;;;;;;4804528;29;20053;-68
2022/08/18 12:49:22;;;;;;;8.38;3.13;;;22.80;99.30;;;;;;4819815;29;20556;-69
2022/08/18 12:51:49;;;;;;;11.52;3.30;;;22.90;95.00;;;;;;4835025;29;20110;-68
2022/08/18 12:54:16;;;;;;;5.70;2.90;;;22.70;98.90;;;;;;4833541;29;20053;-69
2022/08/18 12:56:44;;;;;;;4.65;2.90;;;22.70;98.20;;;;;;4804157;29;20098;-70
2022/08/18 12:59:10;;;;;;;8.75;3.15;;;22.70;96.10;;;;;;4804570;29;20055;-69
2022/08/18 13:01:39;;;;;;;6.00;3.35;;;23.60;93.90;;;;;;4800634;29;20134;-69
2022/08/18 13:04:06;;;;;;;6.03;3.45;;;22.70;97.20;;;;;;4806239;29;20049;-69
2022/08/18 13:06:34;;;;;;;6.60;3.45;;;22.90;98.20;;;;;;4822816;29;20504;-69
2022/08/18 13:09:00;;;;;;;11.20;3.60;;;23.60;98.30;;;;;;4838185;29;20047;-69
2022/08/18 13:11:26;;;;;;;9.57;3.40;;;24.30;98.20;;;;;;4807529;29;20046;-69
2022/08/18 13:13:52;;;;;;;6.80;3.10;;;23.40;93.30;;;;;;4807500;29;20123;-69
2022/08/18 13:16:18;;;;;;;7.65;3.22;;;24.10;98.10;;;;;;4831105;29;20078;-69
2022/08/18 13:18:45;;;;;;;6.90;3.65;;;;;;;;;;4808302;29;20089;-69
2022/08/18 13:21:13;;;;;;;8.70;3.03;;;23.70;97.70;;;;;;4807387;29;20066;-69
2022/08/18 13:23:39;;;;;;;8.50;3.50;;;24.30;97.60;;;;;;4807552;29;20054;-69
2022/08/18 13:26:08;;;;;;;7.88;3.58;;;22.60;96.90;;;;;;4833840;29;20070;-68
2022/08/18 13:28:35;;;;;;;4.72;3.30;;;23.20;97.10;;;;;;4807180;29;20042;-69
2022/08/18 13:31:01;;;;;;;6.93;3.50;;;24.20;97.00;;;;;;4838370;29;20043;-69
2022/08/18 13:33:27;;;;;;;7.75;3.67;;;23.90;96.90;;;;;;4792211;29;20055;-69
2022/08/18 13:35:54;;;;;;;7.93;3.58;;;;;;;;;;4807470;29;20062;-69
2022/08/18 13:38:22;;;;;;;9.10;3.63;;;23.70;96.30;;;;;;4806496;29;20088;-68
2022/08/18 13:40:49;;;;;;;9.77;4.45;;;24.20;96.70;;;;;;4807232;29;20058;-69
2022/08/18 13:43:16;;;;;;;8.65;3.50;;;24.10;96.90;;;;;;4836314;29;20050;-69